createdAt,value
2019-03-22T00:00:52.711Z,148930.06
2019-03-22T00:01:57.587Z,148986.30
2019-03-22T00:03:02.994Z,148983.17
2019-03-22T00:04:08.595Z,148971.12
2019-03-22T00:05:14.177Z,148969.22
2019-03-22T00:06:19.779Z,148959.73
2019-03-22T00:07:25.077Z,148945.22
2019-03-22T00:08:30.665Z,148940.19
2019-03-22T00:09:36.311Z,148981.25
2019-03-22T00:10:41.898Z,148988.84
2019-03-22T00:11:47.528Z,148944.58
2019-03-22T00:12:53.145Z,148911.05
2019-03-22T00:13:58.765Z,148886.41
2019-03-22T00:15:03.670Z,148856.09
2019-03-22T00:16:09.262Z,148850.38
2019-03-22T00:17:14.882Z,148848.52
2019-03-22T00:18:20.482Z,148860.48
2019-03-22T00:19:26.098Z,148871.25
2019-03-22T00:20:31.682Z,148880.09
2019-03-22T00:21:37.284Z,148880.72
2019-03-22T00:22:42.882Z,148876.28
2019-03-22T00:23:48.468Z,148871.25
2019-03-22T00:24:54.112Z,148869.34
2019-03-22T00:25:59.702Z,148866.80
2019-03-22T00:27:15.631Z,148857.94
2019-03-22T00:28:10.550Z,148845.97
2019-03-22T00:29:16.409Z,148823.83
2019-03-22T00:30:22.054Z,148809.94
2019-03-22T00:31:27.655Z,148790.98
2019-03-22T00:32:33.250Z,148765.72
2019-03-22T00:33:38.839Z,148759.41
2019-03-22T00:34:44.497Z,148773.92
2019-03-22T00:35:49.716Z,148781.50
2019-03-22T00:36:54.984Z,148791.63
2019-03-22T00:38:00.602Z,148808.03
2019-03-22T00:39:05.503Z,148845.34
2019-03-22T00:40:10.443Z,148875.64
2019-03-22T00:41:16.028Z,148900.28
2019-03-22T00:42:21.654Z,148888.94
2019-03-22T00:43:27.300Z,148867.44
2019-03-22T00:44:32.919Z,148845.97
2019-03-22T00:45:38.478Z,148835.22
2019-03-22T00:46:44.099Z,148832.67
2019-03-22T00:47:49.697Z,148814.97
2019-03-22T00:48:55.317Z,148801.73
2019-03-22T00:50:00.946Z,148791.63
2019-03-22T00:51:06.552Z,148789.13
2019-03-22T00:52:12.151Z,148783.41
2019-03-22T00:53:17.704Z,148780.91
2019-03-22T00:54:23.313Z,148775.19
2019-03-22T00:55:28.924Z,148763.22
2019-03-22T00:56:34.509Z,148756.23
2019-03-22T00:57:40.125Z,148755.02
2019-03-22T00:58:45.720Z,148764.44
2019-03-22T00:59:51.335Z,148787.22
2019-03-22T01:00:56.605Z,148845.34
2019-03-22T01:02:02.196Z,148831.45
2019-03-22T01:03:07.787Z,148817.52
2019-03-22T01:04:13.424Z,148800.47
2019-03-22T01:05:18.733Z,148796.70
2019-03-22T01:06:24.291Z,148787.22
2019-03-22T01:07:29.872Z,148792.25
2019-03-22T01:08:35.472Z,148823.83
2019-03-22T01:09:41.118Z,148864.94
2019-03-22T01:10:46.326Z,148896.52
2019-03-22T01:11:51.917Z,148877.55
2019-03-22T01:12:57.506Z,148843.42
2019-03-22T01:14:03.106Z,148808.67
2019-03-22T01:15:08.012Z,148791.63
2019-03-22T01:16:13.646Z,148766.34
2019-03-22T01:17:19.263Z,148761.31
2019-03-22T01:18:24.846Z,148729.75
2019-03-22T01:19:30.454Z,148709.52
2019-03-22T01:20:36.064Z,148700.05
2019-03-22T01:21:41.624Z,148675.42
2019-03-22T01:22:47.248Z,148660.91
2019-03-22T01:23:52.830Z,148639.41
2019-03-22T01:24:58.470Z,148626.81
2019-03-22T01:26:04.091Z,148616.06
2019-03-22T01:27:09.684Z,148612.89
2019-03-22T01:28:15.271Z,148614.16
2019-03-22T01:29:20.865Z,148619.23
2019-03-22T01:30:26.483Z,148624.28
2019-03-22T01:31:32.056Z,148624.91
2019-03-22T01:32:37.658Z,148628.08
2019-03-22T01:33:43.261Z,148621.73
2019-03-22T01:34:48.937Z,148617.33
2019-03-22T01:35:54.493Z,148625.55
2019-03-22T01:37:00.048Z,148640.69
2019-03-22T01:38:05.629Z,148656.47
2019-03-22T01:39:11.226Z,148699.41
2019-03-22T01:40:16.171Z,148728.47
2019-03-22T01:41:21.804Z,148748.03
2019-03-22T01:42:27.392Z,148724.03
2019-03-22T01:43:32.978Z,148698.78
2019-03-22T01:44:38.609Z,148710.78
2019-03-22T01:45:44.212Z,148733.52
2019-03-22T01:46:49.815Z,148768.25
2019-03-22T01:47:55.401Z,148727.84
2019-03-22T01:49:01.003Z,148674.16
2019-03-22T01:50:05.936Z,148657.09
2019-03-22T01:51:11.169Z,148651.44
2019-03-22T01:52:16.760Z,148653.97
2019-03-22T01:53:22.351Z,148671.61
2019-03-22T01:54:27.940Z,148660.91
2019-03-22T01:55:33.579Z,148663.41
2019-03-22T01:56:39.143Z,148676.06
2019-03-22T01:57:53.170Z,148672.25
2019-03-22T01:58:50.057Z,148674.16
2019-03-22T01:59:55.695Z,148662.77
2019-03-22T02:01:01.322Z,148653.97
2019-03-22T02:02:06.231Z,148657.73
2019-03-22T02:03:11.845Z,148661.55
2019-03-22T02:04:17.069Z,148661.55
2019-03-22T02:05:22.298Z,148669.11
2019-03-22T02:06:27.882Z,148668.47
2019-03-22T02:07:33.538Z,148662.77
2019-03-22T02:08:38.782Z,148650.16
2019-03-22T02:09:44.381Z,148640.05
2019-03-22T02:10:50.036Z,148633.75
2019-03-22T02:11:55.644Z,148625.55
2019-03-22T02:13:01.261Z,148623.64
2019-03-22T02:14:06.836Z,148619.23
2019-03-22T02:15:11.788Z,148613.53
2019-03-22T02:16:17.369Z,148605.31
2019-03-22T02:17:22.962Z,148599.02
2019-03-22T02:18:28.537Z,148597.11
2019-03-22T02:19:34.111Z,148593.36
2019-03-22T02:20:39.751Z,148585.78
2019-03-22T02:21:45.360Z,148580.06
2019-03-22T02:22:50.916Z,148576.94
2019-03-22T02:23:56.508Z,148573.13
2019-03-22T02:25:02.147Z,148565.56
2019-03-22T02:26:07.808Z,148568.09
2019-03-22T02:27:13.382Z,148563.03
2019-03-22T02:28:18.995Z,148561.75
2019-03-22T02:29:24.609Z,148569.37
2019-03-22T02:30:30.247Z,148586.42
2019-03-22T02:31:35.846Z,148604.69
2019-03-22T02:32:41.060Z,148614.16
2019-03-22T02:33:46.615Z,148609.77
2019-03-22T02:34:52.210Z,148613.53
2019-03-22T02:35:57.840Z,148621.73
2019-03-22T02:37:03.438Z,148648.25
2019-03-22T02:38:09.035Z,148687.44
2019-03-22T02:39:14.662Z,148669.75
2019-03-22T02:40:20.259Z,148635.66
2019-03-22T02:41:26.050Z,148587.00
2019-03-22T02:42:31.671Z,148568.73
2019-03-22T02:43:37.259Z,148569.97
2019-03-22T02:44:42.830Z,148575.03
2019-03-22T02:45:48.451Z,148615.44
2019-03-22T02:46:54.010Z,148662.77
2019-03-22T02:47:59.651Z,148655.83
2019-03-22T02:49:04.931Z,148621.09
2019-03-22T02:50:18.246Z,148581.97
2019-03-22T02:51:16.419Z,148545.34
2019-03-22T02:52:21.990Z,148535.28
2019-03-22T02:53:27.595Z,148534.02
2019-03-22T02:54:33.229Z,148532.75
2019-03-22T02:55:38.840Z,148527.09
2019-03-22T02:56:44.463Z,148521.38
2019-03-22T02:57:50.134Z,148527.09
2019-03-22T02:58:59.161Z,148530.20
2019-03-22T03:00:01.357Z,148525.81
2019-03-22T03:01:06.438Z,148522.64
2019-03-22T03:02:11.368Z,148518.25
2019-03-22T03:03:17.006Z,148522.00
2019-03-22T03:04:22.597Z,148535.88
2019-03-22T03:05:28.257Z,148555.45
2019-03-22T03:06:33.867Z,148570.59
2019-03-22T03:07:39.451Z,148575.03
2019-03-22T03:08:45.118Z,148559.27
2019-03-22T03:09:50.690Z,148556.09
2019-03-22T03:10:55.989Z,148548.52
2019-03-22T03:12:01.270Z,148538.41
2019-03-22T03:13:06.913Z,148539.05
2019-03-22T03:14:12.504Z,148544.72
2019-03-22T03:15:18.210Z,148534.66
2019-03-22T03:16:23.821Z,148529.56
2019-03-22T03:17:29.440Z,148520.09
2019-03-22T03:18:35.034Z,148518.25
2019-03-22T03:19:40.619Z,148516.97
2019-03-22T03:20:46.248Z,148536.50
2019-03-22T03:21:51.831Z,148583.87
2019-03-22T03:22:57.047Z,148608.50
2019-03-22T03:24:02.632Z,148628.08
2019-03-22T03:25:07.556Z,148602.19
2019-03-22T03:26:13.206Z,148547.25
2019-03-22T03:27:18.789Z,148522.00
2019-03-22T03:28:36.156Z,148513.16
2019-03-22T03:29:30.031Z,148453.84
2019-03-22T03:30:35.656Z,148461.41
2019-03-22T03:31:41.238Z,148462.69
2019-03-22T03:32:46.876Z,148458.28
2019-03-22T03:33:52.474Z,148460.78
2019-03-22T03:34:58.079Z,148475.33
2019-03-22T03:36:03.891Z,148489.83
2019-03-22T03:37:09.178Z,148484.80
2019-03-22T03:38:14.408Z,148480.98
2019-03-22T03:39:20.021Z,148480.36
2019-03-22T03:40:25.644Z,148484.80
2019-03-22T03:41:30.950Z,148513.16
2019-03-22T03:42:36.220Z,148568.73
2019-03-22T03:43:41.809Z,148528.94
2019-03-22T03:44:47.444Z,148485.39
2019-03-22T03:45:53.058Z,148431.14
2019-03-22T03:46:58.650Z,148409.67
2019-03-22T03:48:06.362Z,148410.94
2019-03-22T03:49:11.941Z,148432.41
2019-03-22T03:50:17.496Z,148501.20
2019-03-22T03:51:23.104Z,148585.78
2019-03-22T03:52:28.713Z,148583.87
2019-03-22T03:53:33.939Z,148547.88
2019-03-22T03:54:39.545Z,148506.23
2019-03-22T03:55:45.270Z,148478.45
2019-03-22T03:56:50.883Z,148451.94
2019-03-22T03:57:56.529Z,148442.53
2019-03-22T03:59:01.803Z,148441.25
2019-03-22T04:00:06.689Z,148471.52
2019-03-22T04:01:12.339Z,148522.64
2019-03-22T04:02:18.006Z,148510.05
2019-03-22T04:03:23.582Z,148494.22
2019-03-22T04:04:29.189Z,148483.53
2019-03-22T04:05:34.842Z,148458.92
2019-03-22T04:06:40.504Z,148453.84
2019-03-22T04:07:46.071Z,148443.73
2019-03-22T04:08:51.696Z,148460.14
2019-03-22T04:09:57.285Z,148529.56
2019-03-22T04:11:02.946Z,148540.31
2019-03-22T04:12:08.539Z,148508.78
2019-03-22T04:13:14.136Z,148471.52
2019-03-22T04:14:19.730Z,148409.67
2019-03-22T04:15:25.041Z,148385.06
2019-03-22T04:16:30.729Z,148364.28
2019-03-22T04:17:36.351Z,148365.55
2019-03-22T04:18:42.000Z,148373.11
2019-03-22T04:19:47.615Z,148384.44
2019-03-22T04:20:53.238Z,148393.91
2019-03-22T04:21:58.881Z,148398.97
2019-03-22T04:23:04.161Z,148389.52
2019-03-22T04:24:09.743Z,148378.14
2019-03-22T04:25:15.031Z,148371.84
2019-03-22T04:26:20.661Z,148358.56
2019-03-22T04:27:26.302Z,148363.00
2019-03-22T04:28:31.894Z,148370.58
2019-03-22T04:29:37.487Z,148381.31
2019-03-22T04:30:43.075Z,148389.52
2019-03-22T04:31:48.722Z,148396.44
2019-03-22T04:32:54.303Z,148398.34
2019-03-22T04:33:59.934Z,148401.47
2019-03-22T04:35:05.810Z,148397.08
2019-03-22T04:36:11.481Z,148394.53
2019-03-22T04:37:17.059Z,148402.09
2019-03-22T04:38:22.656Z,148445.00
2019-03-22T04:39:28.319Z,148476.59
2019-03-22T04:40:33.894Z,148485.39
2019-03-22T04:41:39.574Z,148505.59
2019-03-22T04:42:45.257Z,148470.89
2019-03-22T04:43:50.875Z,148429.88
2019-03-22T04:44:56.145Z,148407.81
2019-03-22T04:46:01.095Z,148411.56
2019-03-22T04:47:06.006Z,148413.47
2019-03-22T04:48:15.532Z,148424.22
2019-03-22T04:49:20.464Z,148419.78
2019-03-22T04:50:25.421Z,148426.06
2019-03-22T04:51:30.329Z,148429.88
2019-03-22T04:52:35.579Z,148414.11
2019-03-22T04:53:40.463Z,148388.25
2019-03-22T04:54:45.360Z,148371.20
2019-03-22T04:55:51.020Z,148345.98
2019-03-22T04:56:55.946Z,148338.41
2019-03-22T04:58:00.848Z,148344.72
2019-03-22T04:59:05.792Z,148345.34
2019-03-22T05:00:10.664Z,148338.41
2019-03-22T05:01:15.601Z,148330.84
2019-03-22T05:02:20.493Z,148310.02
2019-03-22T05:03:25.404Z,148249.47
2019-03-22T05:04:30.288Z,148222.39
2019-03-22T05:05:35.497Z,148209.75
2019-03-22T05:06:40.422Z,148214.83
2019-03-22T05:07:45.357Z,148240.05
2019-03-22T05:08:50.269Z,148259.56
2019-03-22T05:09:55.166Z,148265.86
2019-03-22T05:11:00.092Z,148269.03
2019-03-22T05:12:05.122Z,148277.86
2019-03-22T05:13:10.135Z,148279.13
2019-03-22T05:14:15.066Z,148290.50
2019-03-22T05:15:19.973Z,148310.66
2019-03-22T05:16:25.246Z,148388.25
2019-03-22T05:17:30.194Z,148460.14
2019-03-22T05:18:35.095Z,148444.38
2019-03-22T05:19:39.982Z,148417.88
2019-03-22T05:20:44.886Z,148416.66
2019-03-22T05:21:49.834Z,148407.19
2019-03-22T05:22:54.724Z,148386.97
2019-03-22T05:23:59.815Z,148395.81
2019-03-22T05:25:04.746Z,148426.06
2019-03-22T05:26:09.951Z,148474.69
2019-03-22T05:27:14.956Z,148462.05
2019-03-22T05:28:19.837Z,148459.56
2019-03-22T05:29:30.417Z,148499.30
2019-03-22T05:32:08.010Z,148472.78
2019-03-22T05:33:13.591Z,148467.75
2019-03-22T05:34:19.218Z,148450.72
2019-03-22T05:35:24.826Z,148448.81
2019-03-22T05:36:30.470Z,148445.00
2019-03-22T05:37:36.129Z,148446.91
2019-03-22T05:38:41.750Z,148429.25
2019-03-22T05:39:47.320Z,148392.05
2019-03-22T05:40:52.936Z,148376.23
2019-03-22T05:41:58.232Z,148373.75
2019-03-22T05:43:03.854Z,148377.50
2019-03-22T05:44:09.470Z,148368.67
2019-03-22T05:45:15.072Z,148376.87
2019-03-22T05:46:20.681Z,148381.31
2019-03-22T05:47:26.304Z,148379.41
2019-03-22T05:48:31.916Z,148384.44
2019-03-22T05:49:37.537Z,148388.88
2019-03-22T05:50:43.118Z,148376.23
2019-03-22T05:51:48.357Z,148370.58
2019-03-22T05:52:54.012Z,148345.98
2019-03-22T05:53:59.619Z,148330.84
2019-03-22T05:55:04.526Z,148322.66
2019-03-22T05:56:10.129Z,148328.31
2019-03-22T05:57:15.776Z,148327.69
2019-03-22T05:58:21.395Z,148327.05
2019-03-22T05:59:27.023Z,148328.95
2019-03-22T06:00:32.588Z,148332.13
2019-03-22T06:01:38.224Z,148333.97
2019-03-22T06:02:43.859Z,148339.69
2019-03-22T06:03:49.455Z,148325.78
2019-03-22T06:04:55.036Z,148328.95
2019-03-22T06:06:00.620Z,148315.09
2019-03-22T06:07:06.209Z,148298.06
2019-03-22T06:08:11.836Z,148303.08
2019-03-22T06:09:17.424Z,148327.05
2019-03-22T06:10:22.992Z,148313.19
2019-03-22T06:11:28.557Z,148323.92
2019-03-22T06:12:34.193Z,148318.22
2019-03-22T06:13:39.747Z,148346.61
2019-03-22T06:14:45.344Z,148385.06
2019-03-22T06:15:50.910Z,148363.64
2019-03-22T06:16:56.512Z,148335.87
2019-03-22T06:18:02.123Z,148342.17
2019-03-22T06:19:07.796Z,148338.41
2019-03-22T06:20:12.721Z,148337.78
2019-03-22T06:21:18.302Z,148343.44
2019-03-22T06:22:23.930Z,148333.97
2019-03-22T06:23:29.560Z,114928.24
2019-03-22T06:24:35.200Z,114928.24
2019-03-22T06:25:40.815Z,114928.24
2019-03-22T06:26:46.480Z,114928.24
2019-03-22T06:27:52.124Z,114928.24
2019-03-22T06:28:57.748Z,114928.24
2019-03-22T06:30:02.983Z,114928.24
2019-03-22T06:31:08.596Z,114928.24
2019-03-22T06:32:14.227Z,114928.24
2019-03-22T06:33:19.499Z,114928.24
2019-03-22T06:34:25.149Z,114928.24
2019-03-22T06:35:30.813Z,114928.24
2019-03-22T06:36:36.048Z,114928.24
2019-03-22T06:37:41.682Z,114928.24
2019-03-22T06:38:47.323Z,114928.24
2019-03-22T06:39:52.917Z,114928.24
2019-03-22T06:40:58.183Z,114928.24
2019-03-22T06:42:03.481Z,114928.24
2019-03-22T06:43:09.149Z,114928.24
2019-03-22T06:44:14.814Z,114928.24
2019-03-22T06:45:20.387Z,114928.24
2019-03-22T06:46:26.167Z,114928.24
2019-03-22T06:47:31.877Z,114928.24
2019-03-22T06:48:37.862Z,114928.24
2019-03-22T06:49:43.350Z,114928.24
2019-03-22T06:50:49.163Z,114928.24
2019-03-22T06:51:54.996Z,114928.24
2019-03-22T06:53:00.925Z,114928.24
2019-03-22T06:54:06.376Z,114928.24
2019-03-22T06:55:11.581Z,114928.24
2019-03-22T06:56:17.376Z,114928.24
2019-03-22T06:57:23.279Z,114928.24
2019-03-22T06:58:29.127Z,114928.24
2019-03-22T06:59:34.757Z,114928.24
2019-03-22T07:00:40.402Z,114928.24
2019-03-22T07:01:46.049Z,114928.24
2019-03-22T07:02:51.714Z,114928.24
2019-03-22T07:03:57.303Z,114928.24
2019-03-22T07:05:02.954Z,114928.24
2019-03-22T07:06:08.551Z,114928.24
2019-03-22T07:07:14.169Z,114928.24
2019-03-22T07:08:19.456Z,114928.24
2019-03-22T07:09:25.085Z,114928.24
2019-03-22T07:10:30.711Z,114928.24
2019-03-22T07:11:36.349Z,114928.24
2019-03-22T07:12:41.950Z,114928.24
2019-03-22T07:13:47.591Z,114928.24
2019-03-22T07:14:53.233Z,114928.24
2019-03-22T07:15:58.889Z,114928.24
2019-03-22T07:17:04.170Z,114928.24
2019-03-22T07:18:09.819Z,114928.24
2019-03-22T07:19:15.463Z,114928.24
2019-03-22T07:20:20.807Z,114928.24
2019-03-22T07:21:26.426Z,114928.24
2019-03-22T07:22:32.017Z,114928.24
2019-03-22T07:23:37.408Z,114928.24
2019-03-22T07:24:42.832Z,114928.24
2019-03-22T07:25:48.471Z,114928.24
2019-03-22T07:26:54.089Z,114928.24
2019-03-22T07:27:59.686Z,114928.24
2019-03-22T07:29:04.632Z,114928.24
2019-03-22T07:30:18.453Z,114928.24
2019-03-22T07:31:15.862Z,114928.24
2019-03-22T07:32:21.468Z,114928.24
2019-03-22T07:33:27.133Z,114928.24
2019-03-22T07:34:32.758Z,114928.24
2019-03-22T07:35:38.015Z,114928.24
2019-03-22T07:36:43.627Z,114928.24
2019-03-22T07:37:49.225Z,114928.24
2019-03-22T07:38:54.870Z,114928.24
2019-03-22T07:40:00.496Z,114928.24
2019-03-22T07:41:06.133Z,114928.24
2019-03-22T07:42:11.750Z,114928.24
2019-03-22T07:43:17.395Z,114928.24
2019-03-22T07:44:23.021Z,114928.24
2019-03-22T07:45:28.617Z,114928.24
2019-03-22T07:46:34.198Z,114928.24
2019-03-22T07:47:39.855Z,114928.24
2019-03-22T07:48:45.517Z,114928.24
2019-03-22T07:49:51.116Z,114928.24
2019-03-22T07:50:56.747Z,114928.24
2019-03-22T07:52:02.382Z,114928.24
2019-03-22T07:53:08.121Z,114928.24
2019-03-22T07:54:13.703Z,114928.24
2019-03-22T07:55:19.323Z,114928.24
2019-03-22T07:56:24.943Z,114928.24
2019-03-22T07:57:30.609Z,114928.24
2019-03-22T07:58:36.216Z,114928.24
2019-03-22T07:59:41.824Z,114928.24
2019-03-22T08:00:47.390Z,114928.24
2019-03-22T08:01:53.029Z,114928.24
2019-03-22T08:02:58.612Z,114928.24
2019-03-22T08:04:03.913Z,114928.24
2019-03-22T08:05:09.264Z,114928.24
2019-03-22T08:06:14.894Z,114928.24
2019-03-22T08:07:20.525Z,114928.24
2019-03-22T08:08:26.123Z,114928.24
2019-03-22T08:09:31.788Z,114928.24
2019-03-22T08:10:37.915Z,114928.24
2019-03-22T08:11:43.572Z,114928.24
2019-03-22T08:12:49.300Z,114928.24
2019-03-22T08:13:54.988Z,114928.24
2019-03-22T08:15:00.713Z,114928.24
2019-03-22T08:16:06.346Z,114928.24
2019-03-22T08:17:11.977Z,114928.24
2019-03-22T08:18:17.610Z,114928.24
2019-03-22T08:19:23.223Z,114928.24
2019-03-22T08:20:28.276Z,114928.24
2019-03-22T08:21:33.844Z,114928.24
2019-03-22T08:22:38.940Z,114928.24
2019-03-22T08:23:44.562Z,114928.24
2019-03-22T08:24:50.291Z,114928.24
2019-03-22T08:25:55.874Z,114928.24
2019-03-22T08:27:01.448Z,114928.24
2019-03-22T08:28:07.089Z,114928.24
2019-03-22T08:29:12.725Z,114928.24
2019-03-22T08:30:18.322Z,114928.24
2019-03-22T08:31:25.108Z,114928.24
2019-03-22T08:32:31.325Z,114928.24
2019-03-22T08:33:36.984Z,114928.24
2019-03-22T08:34:42.643Z,114928.24
2019-03-22T08:35:48.312Z,114928.24
2019-03-22T08:36:53.975Z,114928.24
2019-03-22T08:37:59.627Z,114928.24
2019-03-22T08:39:04.349Z,114928.24
2019-03-22T08:40:09.283Z,114928.24
2019-03-22T08:41:15.145Z,114928.24
2019-03-22T08:42:20.716Z,114928.24
2019-03-22T08:43:26.394Z,114928.24
2019-03-22T08:44:32.055Z,114928.24
2019-03-22T08:45:37.675Z,114928.24
2019-03-22T08:46:45.023Z,114928.24
2019-03-22T08:47:49.048Z,114928.24
2019-03-22T08:48:54.711Z,114928.24
2019-03-22T08:50:00.453Z,114928.24
2019-03-22T08:51:06.034Z,114928.24
2019-03-22T08:52:11.636Z,114928.24
2019-03-22T08:53:17.268Z,114928.24
2019-03-22T08:54:22.935Z,114928.24
2019-03-22T08:55:28.586Z,114928.24
2019-03-22T08:56:36.115Z,114928.24
2019-03-22T08:57:39.940Z,114928.24
2019-03-22T08:58:45.569Z,114928.24
2019-03-22T08:59:51.252Z,114928.24
2019-03-22T09:00:58.088Z,114928.24
2019-03-22T09:02:02.581Z,114928.24
2019-03-22T09:03:07.844Z,114928.24
2019-03-22T09:04:13.517Z,114928.24
2019-03-22T09:05:18.874Z,114928.24
2019-03-22T09:06:24.499Z,114928.24
2019-03-22T09:07:30.126Z,114928.24
2019-03-22T09:08:35.776Z,114928.24
2019-03-22T09:09:42.045Z,114928.24
2019-03-22T09:10:47.023Z,114928.24
2019-03-22T09:11:52.679Z,114928.24
2019-03-22T09:12:58.281Z,114928.24
2019-03-22T09:14:03.908Z,114928.24
2019-03-22T09:15:08.869Z,114928.24
2019-03-22T09:16:14.314Z,114928.24
2019-03-22T09:17:19.578Z,114928.24
2019-03-22T09:18:25.212Z,114928.24
2019-03-22T09:19:30.843Z,114928.24
2019-03-22T09:20:36.512Z,114928.24
2019-03-22T09:21:42.157Z,114928.24
2019-03-22T09:22:47.823Z,114928.24
2019-03-22T09:23:53.614Z,114928.24
2019-03-22T09:24:59.296Z,114928.24
2019-03-22T09:26:04.374Z,114928.24
2019-03-22T09:27:10.065Z,114928.24
2019-03-22T09:28:15.744Z,114928.24
2019-03-22T09:29:21.390Z,114928.24
2019-03-22T09:30:27.112Z,114928.24
2019-03-22T09:31:32.706Z,114928.24
2019-03-22T09:32:38.318Z,114928.24
2019-03-22T09:33:43.950Z,114928.24
2019-03-22T09:34:49.591Z,114928.24
2019-03-22T09:35:55.264Z,114928.24
2019-03-22T09:37:00.955Z,114928.24
2019-03-22T09:38:12.672Z,114928.24
2019-03-22T09:39:12.229Z,114928.24
2019-03-22T09:40:17.197Z,114928.24
2019-03-22T09:41:22.884Z,114928.24
2019-03-22T09:42:28.510Z,114928.24
2019-03-22T09:43:33.765Z,114928.24
2019-03-22T09:44:46.592Z,114928.24
2019-03-22T09:45:44.369Z,114928.24
2019-03-22T09:46:49.986Z,114928.24
2019-03-22T09:47:55.572Z,114928.24
2019-03-22T09:49:01.234Z,114928.24
2019-03-22T09:50:06.882Z,114928.24
2019-03-22T09:51:12.523Z,114928.24
2019-03-22T09:52:18.135Z,114928.24
2019-03-22T09:53:23.834Z,114928.24
2019-03-22T09:54:29.393Z,114928.24
2019-03-22T09:55:36.072Z,114928.24
2019-03-22T09:56:46.782Z,114928.24
2019-03-22T09:57:49.374Z,114928.24
2019-03-22T09:58:52.733Z,114928.24
2019-03-22T09:59:58.316Z,114928.24
2019-03-22T10:01:03.685Z,114928.24
2019-03-22T10:02:09.324Z,114928.24
2019-03-22T10:03:14.966Z,114928.24
2019-03-22T10:04:20.717Z,114928.24
2019-03-22T10:05:26.331Z,114928.24
2019-03-22T10:06:32.045Z,114928.24
2019-03-22T10:07:37.672Z,114928.24
2019-03-22T10:08:43.269Z,114928.24
2019-03-22T10:09:48.936Z,114928.24
2019-03-22T10:10:54.534Z,114928.24
2019-03-22T10:12:00.174Z,114928.24
2019-03-22T10:13:05.578Z,114928.24
2019-03-22T10:14:11.144Z,114928.24
2019-03-22T10:15:16.755Z,114928.24
2019-03-22T10:16:22.399Z,114928.24
2019-03-22T10:17:28.041Z,114928.24
2019-03-22T10:18:36.678Z,114928.24
2019-03-22T10:19:42.079Z,114928.24
2019-03-22T10:20:44.939Z,114928.24
2019-03-22T10:21:50.576Z,114928.24
2019-03-22T10:22:56.216Z,114928.24
2019-03-22T10:24:01.863Z,114928.24
2019-03-22T10:25:06.908Z,114928.24
2019-03-22T10:26:12.524Z,114928.24
2019-03-22T10:27:18.153Z,114928.24
2019-03-22T10:28:23.790Z,114928.24
2019-03-22T10:29:29.412Z,114928.24
2019-03-22T10:30:35.262Z,114928.24
2019-03-22T10:31:41.036Z,114928.24
2019-03-22T10:32:46.665Z,114928.24
2019-03-22T10:33:53.458Z,114928.24
2019-03-22T10:34:59.283Z,114928.24
2019-03-22T10:36:04.807Z,114928.24
2019-03-22T10:37:10.507Z,114928.24
2019-03-22T10:38:18.300Z,114928.24
2019-03-22T10:39:21.785Z,114928.24
2019-03-22T10:40:27.442Z,114928.24
2019-03-22T10:41:33.083Z,114928.24
2019-03-22T10:42:38.779Z,114928.24
2019-03-22T10:43:44.366Z,114928.24
2019-03-22T10:44:50.177Z,114928.24
2019-03-22T10:45:56.689Z,114928.24
2019-03-22T10:47:02.290Z,114928.24
2019-03-22T10:48:07.876Z,114928.24
2019-03-22T10:49:13.516Z,114928.24
2019-03-22T10:50:19.217Z,114928.24
2019-03-22T10:51:24.828Z,114928.24
2019-03-22T10:52:30.473Z,114928.24
2019-03-22T10:53:36.106Z,114928.24
2019-03-22T10:54:41.746Z,114928.24
2019-03-22T10:55:47.330Z,114928.24
2019-03-22T10:56:52.950Z,114928.24
2019-03-22T10:57:58.589Z,114928.24
2019-03-22T10:59:04.171Z,114928.24
2019-03-22T11:00:09.716Z,114928.24
2019-03-22T11:01:15.425Z,114928.24
2019-03-22T11:02:20.403Z,114928.24
2019-03-22T11:03:26.008Z,114928.24
2019-03-22T11:04:31.630Z,114928.24
2019-03-22T11:05:37.209Z,114928.24
2019-03-22T11:06:42.838Z,114928.24
2019-03-22T11:07:48.454Z,114928.24
2019-03-22T11:08:54.056Z,114928.24
2019-03-22T11:09:59.274Z,114928.24
2019-03-22T11:11:04.879Z,114928.24
2019-03-22T11:12:12.455Z,114928.24
2019-03-22T11:13:15.913Z,114928.24
2019-03-22T11:14:21.564Z,114928.24
2019-03-22T11:15:26.891Z,114928.24
2019-03-22T11:16:32.182Z,114928.24
2019-03-22T11:17:37.803Z,114928.24
2019-03-22T11:18:43.454Z,114928.24
2019-03-22T11:19:49.021Z,114928.24
2019-03-22T11:21:04.474Z,114928.24
2019-03-22T11:22:00.305Z,114928.24
2019-03-22T11:23:05.638Z,114928.24
2019-03-22T11:24:11.326Z,114928.24
2019-03-22T11:25:16.694Z,114928.24
2019-03-22T11:26:22.392Z,114928.24
2019-03-22T11:27:28.007Z,114928.24
2019-03-22T11:28:33.326Z,114928.24
2019-03-22T11:29:38.937Z,114928.24
2019-03-22T11:30:44.525Z,114928.24
2019-03-22T11:31:50.161Z,114928.24
2019-03-22T11:32:55.830Z,114928.24
2019-03-22T11:34:01.447Z,114928.24
2019-03-22T11:35:06.336Z,114928.24
2019-03-22T11:36:11.963Z,114928.24
2019-03-22T11:37:17.186Z,114928.24
2019-03-22T11:38:23.021Z,114928.24
2019-03-22T11:39:28.452Z,114928.24
2019-03-22T11:40:34.130Z,114928.24
2019-03-22T11:41:39.134Z,114928.24
2019-03-22T11:42:44.519Z,114928.24
2019-03-22T11:43:50.156Z,114928.24
2019-03-22T11:44:55.792Z,114928.24
2019-03-22T11:46:01.398Z,114928.24
2019-03-22T11:47:06.616Z,114928.24
2019-03-22T11:48:12.385Z,114928.24
2019-03-22T11:49:17.967Z,114928.24
2019-03-22T11:50:22.983Z,114928.24
2019-03-22T11:51:28.347Z,114928.24
2019-03-22T11:52:34.016Z,114928.24
2019-03-22T11:53:39.318Z,114928.24
2019-03-22T11:54:45.243Z,114928.24
2019-03-22T11:55:50.876Z,114928.24
2019-03-22T11:56:56.484Z,114928.24
2019-03-22T11:58:02.114Z,114928.24
2019-03-22T11:59:07.032Z,114928.24
2019-03-22T12:00:16.439Z,114928.24
2019-03-22T12:01:22.653Z,114928.24
2019-03-22T12:02:27.673Z,114928.24
2019-03-22T12:03:33.399Z,114928.24
2019-03-22T12:04:39.059Z,114928.24
2019-03-22T12:05:44.701Z,114928.24
2019-03-22T12:06:49.969Z,114928.24
2019-03-22T12:07:55.601Z,114928.24
2019-03-22T12:09:01.237Z,114928.24
2019-03-22T12:10:07.100Z,114928.24
2019-03-22T12:11:12.695Z,114928.24
2019-03-22T12:12:18.290Z,114928.24
2019-03-22T12:13:23.916Z,114928.24
2019-03-22T12:14:29.632Z,114928.24
2019-03-22T12:15:35.217Z,114928.24
2019-03-22T12:16:40.518Z,114928.24
2019-03-22T12:17:45.800Z,114928.24
2019-03-22T12:18:51.470Z,114928.24
2019-03-22T12:19:57.108Z,114928.24
2019-03-22T12:21:02.740Z,114928.24
2019-03-22T12:22:08.035Z,114928.24
2019-03-22T12:23:13.679Z,114928.24
2019-03-22T12:24:19.305Z,114928.24
2019-03-22T12:25:24.929Z,114928.24
2019-03-22T12:26:31.304Z,114928.24
2019-03-22T12:27:37.003Z,114928.24
2019-03-22T12:28:42.675Z,114928.24
2019-03-22T12:29:48.397Z,114928.24